Terminal Aerodrome Forecast
Issued by NWS Portland, OR

Home | Current Version | Previous Version | Text Only | Print | Product List | Glossary On
Versions: 1 2 3 4 5 6 7 8 9 10 11 12 13 14 15 16 17 18 19 20 21 22 23 24 25 26 27 28 29 30 31 32 33 34 35 36
000
FTUS46 KPQR 231740
TAFSLE
TAF
KSLE 231740Z 2318/2418 16007KT P6SM SCT050 BKN080 OVC150
      TEMPO 2321/2401 -RA
     FM240100 16006KT P6SM -RA SCT025 BKN045 OVC070
     FM240400 18011KT 4SM -RADZ BR BKN025 OVC035
     FM241500 17008KT 6SM -SHRA BR BKN030 OVC040=

USA.gov is the U.S. government's official web portal to all federal, state and local government web resources and services.